Time;durP1;ratioP1;P1;durP2;ratioP2;P2;SDS_P1;SDS_P2;PMS_P1;PMS_P2;Temp;Humidity;BMP_temperature;BMP_pressure;BME280_temperature;BME280_humidity;BME280_pressure;Samples;Min_cycle;Max_cycle;Signal;HPM_P1;HPM_P2
2023/01/05 00:01:04;;;;;;;6.83;4.83;;;13.10;99.90;;;;;;5052495;28;20510;-65
2023/01/05 00:03:30;;;;;;;7.33;4.50;;;13.10;99.90;;;;;;5050594;28;20520;-65
2023/01/05 00:06:04;;;;;;;14.90;5.27;;;13.10;99.90;;;;;;5053179;28;20413;-65
2023/01/05 00:08:30;;;;;;;11.00;5.20;;;13.10;99.90;;;;;;5049762;28;20447;-66
2023/01/05 00:24:40;;;;;;;9.47;5.30;;;13.00;99.90;;;;;;5050300;28;20792;-66
2023/01/05 00:27:06;;;;;;;10.57;5.60;;;13.00;99.90;;;;;;5051585;28;20465;-66
2023/01/05 00:29:32;;;;;;;7.23;5.50;;;13.10;99.90;;;;;;5049992;28;20192;-66
2023/01/05 00:31:58;;;;;;;12.60;6.43;;;13.10;99.90;;;;;;5051577;28;20216;-66
2023/01/05 00:34:23;;;;;;;11.03;5.50;;;13.10;99.90;;;;;;5050588;28;20217;-68
2023/01/05 00:36:49;;;;;;;12.07;5.30;;;13.10;99.90;;;;;;5052031;28;20692;-66
2023/01/05 00:39:14;;;;;;;11.90;5.60;;;13.10;99.90;;;;;;5050699;28;20221;-66
2023/01/05 00:41:40;;;;;;;13.10;5.60;;;13.10;99.90;;;;;;5049531;28;20188;-66
2023/01/05 00:44:06;;;;;;;13.33;5.60;;;13.10;99.90;;;;;;5051302;28;20179;-66
2023/01/05 00:46:31;;;;;;;19.00;6.63;;;13.00;99.90;;;;;;5051503;28;20205;-66
2023/01/05 00:48:57;;;;;;;11.10;5.47;;;13.10;99.90;;;;;;5050894;28;20247;-66
2023/01/05 00:51:23;;;;;;;9.50;5.20;;;13.10;99.90;;;;;;5051678;28;20177;-66
2023/01/05 00:53:49;;;;;;;8.73;5.17;;;13.10;99.90;;;;;;5050426;28;20194;-66
2023/01/05 00:56:15;;;;;;;19.37;6.20;;;13.10;99.90;;;;;;5035066;28;20439;-66
2023/01/05 00:58:40;;;;;;;11.03;5.53;;;13.10;99.90;;;;;;5045413;28;20320;-65
2023/01/05 01:01:13;;;;;;;12.53;4.83;;;13.00;99.90;;;;;;5050311;28;20639;-66
2023/01/05 01:03:39;;;;;;;7.00;5.20;;;13.00;99.90;;;;;;5034664;28;20678;-66
2023/01/05 01:06:04;;;;;;;13.27;5.60;;;13.00;99.90;;;;;;5051244;28;20467;-66
2023/01/05 01:08:30;;;;;;;15.00;5.23;;;13.00;99.90;;;;;;5050120;28;20191;-66
2023/01/05 01:10:56;;;;;;;9.53;5.47;;;13.00;99.90;;;;;;5050944;28;20186;-66
2023/01/05 01:13:25;;;;;;;12.03;5.63;;;13.00;99.90;;;;;;5049692;28;20694;-66
2023/01/05 01:15:50;;;;;;;6.10;4.73;;;13.10;99.90;;;;;;5052167;28;20186;-65
2023/01/05 01:18:16;;;;;;;16.23;6.33;;;13.10;99.90;;;;;;5051459;28;20771;-66
2023/01/05 01:20:42;;;;;;;10.70;5.90;;;13.10;99.90;;;;;;5051232;28;20184;-66
2023/01/05 01:23:07;;;;;;;10.20;5.97;;;13.10;99.90;;;;;;5050995;28;20542;-64
2023/01/05 01:25:33;;;;;;;9.97;5.80;;;13.10;99.90;;;;;;5050167;28;20510;-65
2023/01/05 01:28:00;;;;;;;9.67;5.43;;;13.00;99.90;;;;;;5051270;28;20213;-64
2023/01/05 01:30:25;;;;;;;10.10;5.90;;;13.00;99.90;;;;;;5049702;28;20455;-70
2023/01/05 01:32:51;;;;;;;9.67;5.83;;;13.00;99.90;;;;;;5051114;28;20916;-65
2023/01/05 01:35:17;;;;;;;13.33;6.53;;;13.00;99.90;;;;;;5052113;28;20630;-65
2023/01/05 01:37:42;;;;;;;13.00;6.57;;;13.00;99.90;;;;;;5050816;28;20192;-65
2023/01/05 01:40:09;;;;;;;13.53;6.43;;;12.90;99.90;;;;;;5049746;28;20312;-65
2023/01/05 01:42:35;;;;;;;8.03;6.10;;;12.90;99.90;;;;;;5049456;28;20190;-65
2023/01/05 01:45:14;;;;;;;10.00;5.80;;;12.80;99.90;;;;;;5032089;28;20447;-65
2023/01/05 01:47:49;;;;;;;10.17;6.30;;;12.80;99.90;;;;;;5048606;28;20210;-65
2023/01/05 01:50:27;;;;;;;17.63;6.37;;;12.80;99.90;;;;;;5051006;28;20481;-65
2023/01/05 01:53:00;;;;;;;13.60;6.43;;;12.90;99.90;;;;;;5050269;28;20427;-66
2023/01/05 01:55:28;;;;;;;14.40;7.00;;;12.90;99.90;;;;;;5047555;28;20436;-65
2023/01/05 01:57:54;;;;;;;15.03;7.07;;;12.90;99.90;;;;;;5048518;28;20496;-65
2023/01/05 02:00:20;;;;;;;11.60;6.60;;;13.00;99.90;;;;;;5051126;28;20443;-65
2023/01/05 02:02:49;;;;;;;12.30;6.70;;;12.90;99.90;;;;;;5050359;28;20798;-65
2023/01/05 02:05:16;;;;;;;14.10;6.90;;;12.80;99.90;;;;;;5050641;28;20970;-65
2023/01/05 02:07:45;;;;;;;16.33;7.10;;;12.90;99.90;;;;;;5039254;28;20943;-65
2023/01/05 02:10:11;;;;;;;11.43;6.37;;;12.90;99.90;;;;;;5048984;28;20446;-65
2023/01/05 02:13:02;;;;;;;12.67;6.07;;;13.00;99.90;;;;;;5051683;28;20449;-65
2023/01/05 02:15:38;;;;;;;11.40;5.57;;;12.90;99.90;;;;;;5053137;28;20829;-65
2023/01/05 02:18:25;;;;;;;9.47;6.47;;;12.90;99.90;;;;;;5053546;28;20435;-65
2023/01/05 02:21:27;;;;;;;11.70;7.70;;;12.90;99.90;;;;;;5054275;28;20433;-65
2023/01/05 02:24:35;;;;;;;12.30;5.67;;;12.90;99.90;;;;;;5049746;28;20772;-66
2023/01/05 02:27:07;;;;;;;16.07;7.07;;;12.90;99.90;;;;;;5052214;28;20462;-66
2023/01/05 02:29:59;;;;;;;15.87;7.13;;;12.80;99.90;;;;;;5052366;28;20486;-66
2023/01/05 02:32:38;;;;;;;12.63;6.23;;;12.90;99.90;;;;;;5052278;28;20431;-66
2023/01/05 02:35:26;;;;;;;10.83;6.03;;;12.90;99.90;;;;;;5051465;28;20543;-64
2023/01/05 02:38:41;;;;;;;8.80;6.17;;;12.80;99.90;;;;;;5052224;28;20406;-65
2023/01/05 02:41:18;;;;;;;15.47;6.10;;;12.80;99.90;;;;;;5031602;28;20503;-65
2023/01/05 02:43:44;;;;;;;16.27;6.07;;;12.80;99.90;;;;;;5034152;28;20404;-65
2023/01/05 02:46:10;;;;;;;9.37;5.67;;;12.80;99.90;;;;;;5054017;28;20452;-65
2023/01/05 02:48:37;;;;;;;11.70;5.93;;;12.70;99.90;;;;;;5050619;28;20424;-65
2023/01/05 02:51:07;;;;;;;9.83;6.23;;;12.70;99.90;;;;;;5049772;28;20943;-66
2023/01/05 02:53:40;;;;;;;14.20;5.40;;;12.80;99.90;;;;;;5051965;28;21041;-66
2023/01/05 02:56:14;;;;;;;14.83;5.50;;;12.80;99.90;;;;;;5051319;28;20485;-65
2023/01/05 02:58:51;;;;;;;11.43;5.93;;;12.70;99.90;;;;;;5047011;28;20492;-65
2023/01/05 03:01:26;;;;;;;14.63;5.90;;;12.70;99.90;;;;;;5052167;28;20458;-66
2023/01/05 03:04:07;;;;;;;14.30;5.63;;;12.70;99.90;;;;;;5051268;28;20524;-65
2023/01/05 03:07:04;;;;;;;11.87;6.17;;;12.70;99.90;;;;;;5050497;28;20511;-68
2023/01/05 03:09:37;;;;;;;11.17;5.60;;;12.70;99.90;;;;;;5050194;28;20523;-68
2023/01/05 03:15:22;;;;;;;13.93;5.70;;;12.60;99.90;;;;;;5049691;28;20416;-65
2023/01/05 03:18:10;;;;;;;13.63;6.03;;;12.60;99.90;;;;;;5044714;28;20429;-66
2023/01/05 03:20:41;;;;;;;14.10;5.83;;;12.60;99.90;;;;;;5051131;28;20428;-66
2023/01/05 03:37:58;;;;;;;17.90;5.80;;;12.60;99.90;;;;;;5050849;28;20466;-66
2023/01/05 03:40:30;;;;;;;14.13;6.37;;;12.60;99.90;;;;;;5046518;28;20476;-65
2023/01/05 03:42:56;;;;;;;12.07;5.90;;;12.60;99.90;;;;;;5051451;28;20451;-65
2023/01/05 03:45:24;;;;;;;10.83;6.17;;;12.60;99.90;;;;;;5052492;28;20458;-65
2023/01/05 03:47:50;;;;;;;11.87;5.37;;;12.50;99.90;;;;;;5049216;28;20472;-65
2023/01/05 03:50:16;;;;;;;12.27;6.60;;;12.50;99.90;;;;;;5052713;28;20485;-66
2023/01/05 03:52:41;;;;;;;12.77;6.20;;;12.50;99.90;;;;;;5050534;28;20428;-65
2023/01/05 03:55:08;;;;;;;10.70;6.10;;;12.60;99.90;;;;;;5051485;28;20429;-69
2023/01/05 03:57:33;;;;;;;10.87;5.97;;;12.60;99.90;;;;;;5050933;28;20289;-65
2023/01/05 03:59:59;;;;;;;11.30;6.37;;;12.60;99.90;;;;;;5053246;28;20498;-65
2023/01/05 04:02:25;;;;;;;15.23;6.80;;;12.60;99.90;;;;;;5053645;28;20213;-65
2023/01/05 04:04:50;;;;;;;14.33;7.07;;;12.70;99.90;;;;;;5051466;28;20181;-65
2023/01/05 04:07:16;;;;;;;9.13;6.37;;;12.60;99.90;;;;;;5051241;28;20563;-65
2023/01/05 04:09:42;;;;;;;10.20;5.80;;;12.60;99.90;;;;;;5051338;28;20189;-65
2023/01/05 04:12:07;;;;;;;10.77;7.23;;;12.50;99.90;;;;;;5052050;28;20178;-65
2023/01/05 04:14:33;;;;;;;11.07;6.33;;;12.50;99.90;;;;;;5052707;28;20682;-71
2023/01/05 04:16:59;;;;;;;11.93;6.87;;;12.60;99.90;;;;;;5051438;28;20303;-65
2023/01/05 04:19:25;;;;;;;15.80;6.53;;;12.60;99.90;;;;;;5052559;28;20261;-65
2023/01/05 04:21:50;;;;;;;10.70;6.23;;;12.60;99.90;;;;;;5051218;28;20166;-65
2023/01/05 04:24:16;;;;;;;13.90;7.53;;;12.60;99.90;;;;;;5052021;28;20535;-67
2023/01/05 04:26:42;;;;;;;10.73;6.30;;;12.60;99.90;;;;;;5051767;28;20212;-65
2023/01/05 04:29:10;;;;;;;18.67;7.03;;;12.50;99.90;;;;;;5052266;28;20240;-65
2023/01/05 04:31:35;;;;;;;14.57;6.33;;;12.50;99.90;;;;;;5052327;28;20181;-66
2023/01/05 04:34:01;;;;;;;14.40;6.50;;;12.50;99.90;;;;;;5051719;28;20953;-65
2023/01/05 04:36:27;;;;;;;18.00;6.70;;;12.50;99.90;;;;;;5031246;28;20229;-64
2023/01/05 04:38:52;;;;;;;16.00;6.93;;;12.50;99.90;;;;;;5047290;28;20618;-64
2023/01/05 04:41:18;;;;;;;17.53;6.30;;;12.60;99.90;;;;;;5052088;28;20230;-65
2023/01/05 04:43:44;;;;;;;15.97;9.27;;;12.60;99.90;;;;;;5052063;28;20181;-65
2023/01/05 04:46:09;;;;;;;12.73;6.53;;;12.60;99.90;;;;;;5051610;28;20194;-65
2023/01/05 04:48:35;;;;;;;12.43;6.10;;;12.60;99.90;;;;;;5051529;28;20235;-70
2023/01/05 04:51:01;;;;;;;11.90;6.90;;;12.60;99.90;;;;;;5052203;28;20170;-65
2023/01/05 04:53:27;;;;;;;15.90;10.23;;;12.60;99.90;;;;;;5051359;28;20260;-65
2023/01/05 04:55:52;;;;;;;15.30;7.20;;;12.60;99.90;;;;;;5051844;28;20178;-65
2023/01/05 04:58:19;;;;;;;15.47;9.07;;;12.60;99.90;;;;;;5049438;28;20186;-65
2023/01/05 05:00:44;;;;;;;11.20;6.07;;;12.60;99.90;;;;;;5051690;28;20186;-65
2023/01/05 05:03:10;;;;;;;10.63;7.17;;;12.60;99.90;;;;;;5051933;28;20498;-65
2023/01/05 05:05:36;;;;;;;18.13;8.20;;;12.50;99.90;;;;;;5052535;28;20182;-65
2023/01/05 05:08:02;;;;;;;13.40;6.23;;;12.60;99.90;;;;;;5051617;28;20529;-65
2023/01/05 05:10:27;;;;;;;15.93;8.10;;;12.60;99.90;;;;;;5050060;28;20438;-65
2023/01/05 05:12:53;;;;;;;13.00;7.00;;;12.60;99.90;;;;;;5048693;28;20240;-67
2023/01/05 05:15:19;;;;;;;13.47;6.20;;;12.60;99.90;;;;;;5031024;28;20423;-66
2023/01/05 05:17:45;;;;;;;14.13;6.37;;;12.50;99.90;;;;;;5042078;28;20185;-67
2023/01/05 05:20:11;;;;;;;11.80;7.27;;;12.50;99.90;;;;;;5051800;28;20431;-68
2023/01/05 05:22:37;;;;;;;13.57;8.37;;;12.50;99.90;;;;;;5051130;28;20227;-67
2023/01/05 05:25:02;;;;;;;24.33;8.23;;;12.60;99.90;;;;;;5052555;28;20178;-67
2023/01/05 05:27:28;;;;;;;20.00;8.57;;;12.70;99.90;;;;;;5051367;28;20514;-67
2023/01/05 05:29:54;;;;;;;14.00;7.67;;;12.70;99.90;;;;;;5051576;28;20452;-67
2023/01/05 05:32:20;;;;;;;12.00;8.37;;;12.80;99.90;;;;;;5051919;28;20177;-67
2023/01/05 05:34:45;;;;;;;14.73;7.57;;;12.80;99.90;;;;;;5051319;28;20191;-67
2023/01/05 05:37:11;;;;;;;12.23;8.73;;;12.80;99.90;;;;;;5051544;28;20183;-67
2023/01/05 05:39:36;;;;;;;15.70;9.37;;;12.90;99.90;;;;;;5049655;28;20236;-67
2023/01/05 05:42:02;;;;;;;19.27;9.63;;;13.00;99.90;;;;;;5051249;28;20171;-67
2023/01/05 05:44:28;;;;;;;14.00;8.67;;;12.90;99.90;;;;;;5050791;28;20186;-70
2023/01/05 05:46:54;;;;;;;12.07;9.40;;;12.90;99.90;;;;;;5053394;28;20205;-70
2023/01/05 05:49:19;;;;;;;15.57;9.50;;;12.90;99.90;;;;;;5054983;28;20188;-70
2023/01/05 05:51:45;;;;;;;13.03;9.20;;;12.90;99.90;;;;;;5054900;28;20243;-70
2023/01/05 05:54:11;;;;;;;14.73;9.73;;;12.90;99.90;;;;;;5054436;28;20174;-69
2023/01/05 05:56:36;;;;;;;14.43;11.00;;;13.00;99.90;;;;;;5055834;28;20681;-69
2023/01/05 05:59:02;;;;;;;12.60;9.90;;;13.00;99.90;;;;;;5054086;28;20177;-69
2023/01/05 06:01:28;;;;;;;15.07;11.70;;;13.00;99.90;;;;;;5055743;28;20235;-69
2023/01/05 06:03:54;;;;;;;16.60;10.60;;;13.00;99.90;;;;;;5052286;28;20165;-68
2023/01/05 06:06:20;;;;;;;14.27;8.43;;;13.00;99.90;;;;;;5055086;28;20505;-68
2023/01/05 06:08:46;;;;;;;20.67;8.37;;;13.00;99.90;;;;;;5053336;28;20225;-68
2023/01/05 06:11:11;;;;;;;18.13;8.93;;;13.00;99.90;;;;;;5054418;28;20186;-66
2023/01/05 06:13:37;;;;;;;16.80;8.90;;;13.00;99.90;;;;;;5054659;28;20190;-67
2023/01/05 06:16:03;;;;;;;15.37;8.60;;;13.00;99.90;;;;;;5052607;28;20237;-64
2023/01/05 06:18:28;;;;;;;11.23;7.20;;;13.00;99.90;;;;;;5053250;28;20265;-65
2023/01/05 06:20:54;;;;;;;15.47;7.87;;;12.90;99.90;;;;;;5053411;28;20181;-65
2023/01/05 06:23:20;;;;;;;11.90;7.73;;;12.90;99.90;;;;;;5052740;28;20228;-65
2023/01/05 06:25:45;;;;;;;10.70;7.30;;;12.80;99.90;;;;;;5054037;28;20276;-65
2023/01/05 06:28:11;;;;;;;10.73;7.20;;;12.80;99.90;;;;;;5052711;28;20289;-65
2023/01/05 06:30:37;;;;;;;13.93;7.77;;;12.70;99.90;;;;;;5054057;28;20618;-65
2023/01/05 06:33:03;;;;;;;15.70;6.83;;;12.60;99.90;;;;;;5053386;28;20439;-65
2023/01/05 06:35:29;;;;;;;14.37;7.87;;;12.60;99.90;;;;;;5054757;28;20178;-65
2023/01/05 06:37:54;;;;;;;12.13;8.53;;;12.60;99.90;;;;;;5052406;28;20916;-65
2023/01/05 06:40:20;;;;;;;20.40;7.90;;;12.60;99.90;;;;;;5054061;28;20273;-65
2023/01/05 06:42:46;;;;;;;14.60;8.90;;;12.60;99.90;;;;;;5052564;28;20186;-65
2023/01/05 06:45:14;;;;;;;15.37;8.10;;;12.60;99.90;;;;;;5053038;28;20188;-66
2023/01/05 06:47:39;;;;;;;13.90;8.57;;;12.60;99.90;;;;;;5052736;28;20205;-67
2023/01/05 06:50:06;;;;;;;13.47;8.17;;;12.60;99.90;;;;;;5050896;28;20442;-64
2023/01/05 06:52:35;;;;;;;16.70;8.40;;;12.60;99.90;;;;;;5050144;28;20599;-65
2023/01/05 06:55:08;;;;;;;15.10;8.43;;;12.40;99.90;;;;;;5033898;28;20902;-65
2023/01/05 06:57:35;;;;;;;17.93;9.00;;;12.40;99.90;;;;;;5038490;28;20512;-65
2023/01/05 07:00:06;;;;;;;12.87;8.77;;;12.40;99.90;;;;;;5049315;28;20945;-65
2023/01/05 07:02:32;;;;;;;18.47;9.37;;;12.40;99.90;;;;;;5054562;28;20557;-65
2023/01/05 07:04:58;;;;;;;17.47;9.17;;;12.40;99.90;;;;;;5053826;28;20490;-65
2023/01/05 07:07:24;;;;;;;14.73;8.60;;;12.40;99.90;;;;;;5053885;28;20482;-65
2023/01/05 07:09:49;;;;;;;16.73;9.00;;;12.40;99.90;;;;;;5052860;28;20243;-65
2023/01/05 07:12:16;;;;;;;17.20;8.40;;;12.40;99.90;;;;;;5053567;28;20190;-65
2023/01/05 07:14:42;;;;;;;17.17;8.60;;;12.40;99.90;;;;;;5054476;28;20185;-65
2023/01/05 07:17:08;;;;;;;12.73;7.83;;;12.40;99.90;;;;;;5053090;28;20428;-65
2023/01/05 07:19:33;;;;;;;11.30;8.07;;;12.30;99.90;;;;;;5052303;28;20236;-65
2023/01/05 07:21:59;;;;;;;14.90;8.60;;;12.30;99.90;;;;;;5053191;28;20180;-65
2023/01/05 07:24:25;;;;;;;12.07;10.37;;;12.30;99.90;;;;;;5054005;28;20167;-65
2023/01/05 07:26:51;;;;;;;10.90;8.53;;;12.30;99.90;;;;;;5053299;28;20246;-65
2023/01/05 07:29:17;;;;;;;12.10;8.47;;;12.30;99.90;;;;;;5052954;28;20420;-65
2023/01/05 07:31:42;;;;;;;13.63;7.97;;;12.20;99.90;;;;;;5053989;28;20629;-66
2023/01/05 07:34:09;;;;;;;14.80;8.87;;;12.20;99.90;;;;;;5053341;28;20213;-66
2023/01/05 07:36:35;;;;;;;18.77;8.10;;;12.20;99.90;;;;;;5052612;28;20173;-66
2023/01/05 07:39:00;;;;;;;14.00;7.77;;;12.20;99.90;;;;;;5050608;28;20475;-67
2023/01/05 07:41:26;;;;;;;18.40;8.30;;;12.20;99.90;;;;;;5053950;28;20224;-64
2023/01/05 07:43:52;;;;;;;12.60;8.10;;;12.10;99.90;;;;;;5053122;28;20181;-64
2023/01/05 07:46:17;;;;;;;14.43;8.43;;;12.10;99.90;;;;;;5053403;28;20262;-64
2023/01/05 07:48:43;;;;;;;13.80;10.20;;;12.10;99.90;;;;;;5053226;28;20182;-65
2023/01/05 07:51:10;;;;;;;18.33;11.93;;;12.10;99.90;;;;;;5051580;28;20178;-65
2023/01/05 07:53:37;;;;;;;16.67;10.83;;;12.10;99.90;;;;;;5052303;28;20244;-65
2023/01/05 07:56:04;;;;;;;16.07;9.93;;;12.10;99.90;;;;;;5052922;28;20443;-65
2023/01/05 07:58:31;;;;;;;18.70;10.20;;;12.00;99.90;;;;;;5052743;28;20418;-65
2023/01/05 08:01:02;;;;;;;16.60;9.90;;;12.10;99.90;;;;;;5051984;28;20445;-65
2023/01/05 08:03:28;;;;;;;22.30;10.77;;;12.10;99.90;;;;;;5051835;28;20430;-65
2023/01/05 08:05:53;;;;;;;13.10;10.50;;;12.10;99.90;;;;;;5052511;28;20440;-65
2023/01/05 08:08:19;;;;;;;17.13;10.57;;;12.10;99.90;;;;;;5052520;28;20212;-65
2023/01/05 08:10:45;;;;;;;14.73;11.50;;;12.10;99.90;;;;;;5051082;28;20705;-70
2023/01/05 08:15:56;;;;;;;17.90;10.73;;;12.10;99.90;;;;;;5052607;28;20168;-65
2023/01/05 08:18:23;;;;;;;20.27;10.80;;;12.10;99.90;;;;;;5052018;28;20424;-65
2023/01/05 08:20:54;;;;;;;19.50;10.40;;;12.10;99.90;;;;;;5052250;28;20416;-67
2023/01/05 08:23:20;;;;;;;20.90;11.40;;;12.10;99.90;;;;;;5052793;28;20427;-65
2023/01/05 08:25:46;;;;;;;21.33;11.73;;;12.10;99.90;;;;;;5052926;28;20411;-66
2023/01/05 08:28:12;;;;;;;17.37;10.00;;;12.20;99.90;;;;;;5051211;28;20976;-65
2023/01/05 08:30:38;;;;;;;16.57;9.30;;;12.20;99.90;;;;;;5051743;28;20691;-65
2023/01/05 08:33:04;;;;;;;24.20;10.90;;;12.20;99.90;;;;;;5051691;28;20228;-65
2023/01/05 08:35:30;;;;;;;17.67;10.07;;;12.30;99.90;;;;;;5052770;28;20623;-65
2023/01/05 08:37:56;;;;;;;15.70;10.50;;;12.10;99.90;;;;;;5051263;28;20425;-66
2023/01/05 08:40:24;;;;;;;18.93;9.20;;;12.10;99.90;;;;;;5052330;28;20458;-65
2023/01/05 08:42:50;;;;;;;14.90;9.13;;;12.10;99.90;;;;;;5052069;28;20170;-68
2023/01/05 08:45:16;;;;;;;18.57;9.73;;;12.10;99.90;;;;;;5052416;28;20427;-65
2023/01/05 08:47:42;;;;;;;11.33;9.30;;;12.10;99.90;;;;;;5051690;28;20477;-65
2023/01/05 08:50:10;;;;;;;13.43;9.33;;;12.10;99.90;;;;;;5051563;28;20424;-65
2023/01/05 08:52:37;;;;;;;12.50;8.27;;;12.10;99.90;;;;;;5052836;28;20424;-65
2023/01/05 08:55:04;;;;;;;15.27;9.10;;;12.10;99.90;;;;;;5051977;28;20489;-65
2023/01/05 08:57:30;;;;;;;14.93;9.10;;;12.10;99.90;;;;;;5051936;28;20426;-65
2023/01/05 08:59:56;;;;;;;21.00;10.53;;;12.00;99.90;;;;;;5050285;28;20515;-65
2023/01/05 09:02:22;;;;;;;20.60;10.43;;;12.10;99.90;;;;;;5052004;28;20288;-65
2023/01/05 09:04:47;;;;;;;18.13;11.17;;;12.10;99.90;;;;;;5052286;28;20645;-65
2023/01/05 09:07:13;;;;;;;14.10;10.00;;;12.10;99.90;;;;;;5051228;28;20537;-65
2023/01/05 09:09:39;;;;;;;14.30;9.10;;;12.10;99.90;;;;;;5051425;28;20197;-65
2023/01/05 09:12:05;;;;;;;22.03;10.50;;;12.10;99.90;;;;;;5051477;28;20178;-65
2023/01/05 09:14:31;;;;;;;17.77;11.10;;;12.10;99.90;;;;;;5052376;28;20625;-65
2023/01/05 09:16:56;;;;;;;18.80;11.87;;;12.10;99.90;;;;;;5051291;28;20434;-68
2023/01/05 09:19:23;;;;;;;16.33;10.50;;;12.10;99.90;;;;;;5033337;28;20180;-65
2023/01/05 09:21:49;;;;;;;17.93;10.47;;;12.10;99.90;;;;;;5054331;28;20189;-65
2023/01/05 09:24:15;;;;;;;20.77;11.17;;;12.20;99.90;;;;;;5055276;28;20601;-65
2023/01/05 09:26:41;;;;;;;18.87;10.87;;;12.20;99.90;;;;;;5055904;28;20618;-65
2023/01/05 09:29:08;;;;;;;23.53;10.70;;;12.20;99.90;;;;;;5054487;28;20199;-65
2023/01/05 09:31:33;;;;;;;20.83;11.10;;;12.20;99.90;;;;;;5056022;28;20795;-64
2023/01/05 09:33:59;;;;;;;19.87;11.30;;;12.20;99.90;;;;;;5054242;28;20552;-65
2023/01/05 09:36:25;;;;;;;18.07;11.70;;;12.30;99.90;;;;;;5054644;28;20203;-64
2023/01/05 09:38:53;;;;;;;22.47;11.80;;;12.30;99.90;;;;;;5055286;28;20535;-65
2023/01/05 09:41:36;;;;;;;21.53;12.47;;;12.20;99.90;;;;;;5056123;28;20471;-65
2023/01/05 09:44:09;;;;;;;22.50;11.97;;;12.20;99.90;;;;;;5055133;28;20417;-65
2023/01/05 09:46:40;;;;;;;17.53;10.77;;;12.20;99.90;;;;;;5055043;28;20990;-65
2023/01/05 09:49:12;;;;;;;17.83;10.20;;;12.30;99.90;;;;;;5054077;28;20408;-65
2023/01/05 09:51:38;;;;;;;18.50;11.10;;;12.30;99.90;;;;;;5055606;28;20396;-65
2023/01/05 09:54:04;;;;;;;18.40;12.73;;;12.30;99.90;;;;;;5055249;28;20423;-65
2023/01/05 09:56:31;;;;;;;21.27;11.30;;;12.40;99.90;;;;;;5055749;28;20212;-65
2023/01/05 09:59:07;;;;;;;25.40;13.27;;;12.40;99.90;;;;;;5054328;28;20181;-66
2023/01/05 10:01:34;;;;;;;18.43;13.27;;;12.40;99.90;;;;;;5055222;28;20512;-65
2023/01/05 10:04:04;;;;;;;19.33;13.20;;;12.40;99.90;;;;;;5053112;28;20404;-68
2023/01/05 10:06:34;;;;;;;19.80;12.47;;;12.40;99.90;;;;;;5035359;28;20462;-65
2023/01/05 10:09:03;;;;;;;20.30;12.00;;;12.50;99.90;;;;;;5051225;28;20434;-65
2023/01/05 10:14:45;;;;;;;24.47;10.63;;;12.40;99.90;;;;;;5054355;28;20429;-65
2023/01/05 10:17:17;;;;;;;26.17;12.53;;;12.40;99.90;;;;;;5054197;28;20424;-65
2023/01/05 10:19:44;;;;;;;32.93;11.20;;;12.40;99.90;;;;;;5055132;28;20452;-65
2023/01/05 10:22:31;;;;;;;22.40;11.60;;;12.50;99.90;;;;;;5054076;28;20427;-65
2023/01/05 10:25:03;;;;;;;24.63;11.57;;;12.40;99.90;;;;;;5055377;28;20812;-66
2023/01/05 10:27:40;;;;;;;19.47;10.73;;;12.50;99.90;;;;;;5055311;28;20444;-65
2023/01/05 10:30:23;;;;;;;18.20;11.60;;;12.50;99.90;;;;;;5054233;28;20806;-69
2023/01/05 10:32:59;;;;;;;18.33;12.23;;;12.40;99.90;;;;;;5054090;28;20411;-64
2023/01/05 10:35:37;;;;;;;26.17;11.70;;;12.40;99.90;;;;;;5054083;28;20494;-67
2023/01/05 10:38:35;;;;;;;18.33;10.53;;;12.40;99.90;;;;;;5054510;28;20495;-70
2023/01/05 10:41:24;;;;;;;22.90;11.07;;;12.40;99.90;;;;;;5054468;28;20467;-70
2023/01/05 10:43:59;;;;;;;18.67;10.00;;;12.40;99.90;;;;;;5054327;28;20406;-70
2023/01/05 10:46:25;;;;;;;16.53;10.40;;;12.50;99.90;;;;;;5054879;28;20538;-70
2023/01/05 10:48:51;;;;;;;20.27;9.50;;;12.50;99.90;;;;;;5054602;28;20522;-70
2023/01/05 10:51:17;;;;;;;21.73;10.90;;;12.50;99.90;;;;;;5053601;28;21108;-69
2023/01/05 10:53:44;;;;;;;17.10;10.07;;;12.50;99.90;;;;;;5054581;28;20555;-70
2023/01/05 10:56:13;;;;;;;16.93;9.30;;;12.60;99.90;;;;;;5054060;28;20808;-70
2023/01/05 10:58:43;;;;;;;18.33;9.17;;;12.60;99.90;;;;;;5054458;28;20384;-70
2023/01/05 11:01:28;;;;;;;18.30;10.03;;;12.60;99.90;;;;;;5053948;28;20417;-70
2023/01/05 11:04:11;;;;;;;16.53;9.50;;;12.60;99.90;;;;;;5053235;28;20831;-70
2023/01/05 11:06:37;;;;;;;18.47;8.70;;;12.60;99.90;;;;;;5054083;28;20447;-70
2023/01/05 11:09:22;;;;;;;17.20;9.43;;;12.60;99.90;;;;;;5053616;28;20448;-70
2023/01/05 11:11:55;;;;;;;10.57;7.90;;;12.70;99.90;;;;;;5053143;28;20415;-70
2023/01/05 11:14:22;;;;;;;15.20;10.03;;;12.70;99.90;;;;;;5053714;28;20762;-70
2023/01/05 11:16:54;;;;;;;13.33;9.00;;;12.70;99.90;;;;;;5052743;28;20434;-70
2023/01/05 11:19:24;;;;;;;11.70;7.73;;;12.70;99.90;;;;;;5053928;28;20412;-70
2023/01/05 11:21:50;;;;;;;19.23;8.60;;;12.70;99.90;;;;;;5054184;28;20434;-70
2023/01/05 11:24:34;;;;;;;17.07;9.10;;;12.70;99.90;;;;;;5053531;28;20892;-70
2023/01/05 11:27:04;;;;;;;19.57;8.80;;;12.60;99.90;;;;;;5053527;28;20243;-71
2023/01/05 11:29:30;;;;;;;13.50;7.30;;;12.70;99.90;;;;;;5052688;28;20496;-70
2023/01/05 11:31:58;;;;;;;14.97;7.37;;;12.80;99.90;;;;;;5054043;28;20422;-70
2023/01/05 11:34:46;;;;;;;21.13;8.30;;;12.80;99.90;;;;;;5053631;28;20462;-70
2023/01/05 11:37:25;;;;;;;17.03;7.90;;;12.80;99.90;;;;;;5052928;28;20980;-70
2023/01/05 11:39:59;;;;;;;13.83;7.50;;;12.80;99.90;;;;;;5053529;28;21042;-70
2023/01/05 11:42:25;;;;;;;17.77;8.40;;;12.90;99.90;;;;;;5053871;28;20466;-70
2023/01/05 11:44:54;;;;;;;12.73;9.00;;;12.90;99.90;;;;;;5034615;28;20797;-70
2023/01/05 11:47:26;;;;;;;15.97;10.60;;;12.90;99.90;;;;;;5032658;28;21013;-70
2023/01/05 11:50:12;;;;;;;20.47;9.70;;;12.90;99.90;;;;;;5033577;28;20407;-70
2023/01/05 11:52:42;;;;;;;13.70;9.23;;;12.90;99.90;;;;;;5033603;28;20448;-71
2023/01/05 11:55:23;;;;;;;15.03;8.27;;;12.90;99.90;;;;;;5032994;28;20405;-70
2023/01/05 11:57:53;;;;;;;20.37;8.13;;;12.90;99.90;;;;;;5032208;28;20401;-70
2023/01/05 12:00:49;;;;;;;11.27;8.83;;;12.90;99.90;;;;;;5041239;28;20827;-69
2023/01/05 12:03:37;;;;;;;14.70;8.30;;;12.90;99.90;;;;;;5047869;28;20811;-70
2023/01/05 12:06:18;;;;;;;13.90;7.83;;;13.00;99.90;;;;;;5052951;28;20554;-70
2023/01/05 12:08:59;;;;;;;18.07;8.90;;;13.00;99.90;;;;;;5052306;28;21095;-69
2023/01/05 12:11:31;;;;;;;15.90;7.93;;;13.10;99.90;;;;;;5050085;28;21025;-70
2023/01/05 12:14:18;;;;;;;18.00;7.53;;;13.00;99.90;;;;;;5051845;28;20871;-70
2023/01/05 12:16:55;;;;;;;13.97;8.00;;;13.00;99.90;;;;;;5053293;28;20393;-70
2023/01/05 12:19:45;;;;;;;9.67;7.90;;;13.20;99.90;;;;;;5052718;28;20896;-69
2023/01/05 12:22:30;;;;;;;12.73;8.73;;;13.10;99.90;;;;;;5051306;28;20500;-70
2023/01/05 12:25:23;;;;;;;15.80;7.60;;;13.10;99.90;;;;;;5053146;28;20759;-69
2023/01/05 12:28:18;;;;;;;16.23;7.83;;;13.20;99.90;;;;;;5051730;28;20781;-69
2023/01/05 12:31:05;;;;;;;14.60;7.73;;;13.20;99.90;;;;;;5043031;28;20452;-70
2023/01/05 12:34:03;;;;;;;11.90;7.90;;;13.20;99.90;;;;;;5051702;28;20393;-69
2023/01/05 12:37:06;;;;;;;12.00;7.90;;;13.20;99.90;;;;;;5049612;28;20426;-70
2023/01/05 12:40:09;;;;;;;14.63;7.83;;;13.30;99.90;;;;;;5051307;28;20468;-70
2023/01/05 12:43:09;;;;;;;11.10;7.77;;;13.30;99.90;;;;;;5052821;28;20507;-69
2023/01/05 12:45:56;;;;;;;16.70;7.80;;;13.30;99.90;;;;;;5029483;28;20434;-70
2023/01/05 12:48:33;;;;;;;12.63;7.10;;;13.20;99.90;;;;;;5051999;28;20446;-70
2023/01/05 12:51:11;;;;;;;12.43;8.63;;;13.30;99.90;;;;;;5052432;28;20855;-69
2023/01/05 12:53:47;;;;;;;14.83;7.07;;;13.30;99.90;;;;;;5052848;28;20414;-69
2023/01/05 12:56:13;;;;;;;18.17;8.37;;;13.30;99.90;;;;;;5051523;28;20398;-70
2023/01/05 12:58:45;;;;;;;13.30;7.07;;;13.40;99.90;;;;;;5050916;28;20434;-70
2023/01/05 13:01:18;;;;;;;11.83;8.80;;;13.50;99.90;;;;;;5052014;28;20518;-70
2023/01/05 13:03:51;;;;;;;10.00;7.40;;;13.50;99.90;;;;;;5051463;28;20402;-69
2023/01/05 13:06:21;;;;;;;14.43;10.07;;;13.50;99.90;;;;;;5051736;28;20394;-69
2023/01/05 13:08:58;;;;;;;10.20;6.17;;;13.60;99.90;;;;;;5051241;28;20427;-69
2023/01/05 13:11:32;;;;;;;12.73;6.23;;;13.70;99.90;;;;;;5051966;28;20494;-69
2023/01/05 13:14:20;;;;;;;13.77;5.67;;;13.70;99.90;;;;;;5052424;28;20416;-69
2023/01/05 13:16:53;;;;;;;11.03;7.40;;;13.70;99.90;;;;;;5051095;28;20529;-69
2023/01/05 13:19:38;;;;;;;9.97;8.97;;;13.70;99.90;;;;;;5051470;28;20414;-69
2023/01/05 13:22:12;;;;;;;11.87;7.33;;;13.80;99.90;;;;;;5052365;28;20388;-69
2023/01/05 13:24:59;;;;;;;12.50;8.90;;;13.70;99.90;;;;;;5049947;28;20437;-70
2023/01/05 13:27:28;;;;;;;15.13;9.37;;;13.80;99.90;;;;;;5045998;28;20467;-69
2023/01/05 13:29:58;;;;;;;12.93;10.60;;;13.80;99.90;;;;;;5041387;28;20420;-70